createdAt,value
2022-09-02T00:02:10.452Z,1.00
2022-09-02T00:07:12.011Z,0.90
2022-09-02T00:12:13.501Z,0.85
2022-09-02T00:17:14.873Z,1.33
2022-09-02T00:22:16.182Z,1.13
2022-09-02T00:27:17.515Z,1.17
2022-09-02T00:32:19.481Z,0.98
2022-09-02T00:37:20.908Z,0.95
2022-09-02T00:42:22.927Z,0.80
2022-09-02T00:47:24.362Z,0.75
2022-09-02T00:52:31.894Z,0.93
2022-09-02T00:57:38.374Z,0.98
2022-09-02T01:02:42.054Z,1.08
2022-09-02T01:12:47.312Z,0.77
2022-09-02T01:17:51.154Z,0.65
2022-09-02T01:22:53.481Z,0.82
2022-09-02T01:28:05.203Z,0.95
2022-09-02T01:33:06.727Z,0.75
2022-09-02T01:38:08.396Z,1.10
2022-09-02T01:43:14.038Z,1.08
2022-09-02T01:48:21.465Z,1.05
2022-09-02T01:53:23.333Z,0.70
2022-09-02T01:58:24.829Z,0.95
2022-09-02T02:03:26.183Z,0.60
2022-09-02T02:08:27.763Z,1.33
2022-09-02T02:13:29.135Z,1.00
2022-09-02T02:18:30.929Z,0.80
2022-09-02T02:23:32.365Z,0.82
2022-09-02T02:28:36.952Z,0.93
2022-09-02T02:33:38.431Z,0.98
2022-09-02T02:38:41.283Z,0.77
2022-09-02T02:43:43.001Z,0.63
2022-09-02T02:48:44.442Z,0.85
2022-09-02T02:53:45.790Z,1.15
2022-09-02T02:58:47.157Z,0.95
2022-09-02T03:03:48.565Z,0.70
2022-09-02T03:08:51.123Z,1.45
2022-09-02T03:13:52.522Z,0.93
2022-09-02T03:18:54.032Z,0.73
2022-09-02T03:23:55.996Z,0.80
2022-09-02T03:28:59.606Z,0.68
2022-09-02T03:34:02.650Z,0.70
2022-09-02T03:39:05.576Z,0.67
2022-09-02T03:44:11.568Z,0.77
2022-09-02T03:49:13.120Z,0.68
2022-09-02T03:54:14.746Z,1.30
2022-09-02T03:59:16.737Z,1.23
2022-09-02T04:04:22.738Z,1.10
2022-09-02T04:09:24.654Z,1.00
2022-09-02T04:14:27.451Z,0.90
2022-09-02T04:19:28.853Z,0.95
2022-09-02T04:24:31.103Z,0.90
2022-09-02T04:29:32.614Z,0.88
2022-09-02T04:34:34.347Z,0.90
2022-09-02T04:39:35.679Z,1.13
2022-09-02T04:44:37.018Z,0.82
2022-09-02T04:49:38.430Z,0.82
2022-09-02T04:54:39.741Z,1.33
2022-09-02T04:59:41.101Z,0.90
2022-09-02T05:04:42.454Z,1.00
2022-09-02T05:09:44.373Z,0.95
2022-09-02T05:14:48.959Z,0.93
2022-09-02T05:19:50.414Z,1.05
2022-09-02T05:24:51.793Z,1.17
2022-09-02T05:29:58.954Z,1.05
2022-09-02T05:35:00.258Z,1.08
2022-09-02T05:40:01.749Z,1.00
2022-09-02T05:45:04.405Z,1.10
2022-09-02T05:50:07.773Z,0.85
2022-09-02T05:55:09.914Z,1.23
2022-09-02T06:00:17.787Z,0.95
2022-09-02T06:05:19.718Z,1.20
2022-09-02T06:10:21.173Z,0.80
2022-09-02T06:15:22.595Z,1.00
2022-09-02T06:20:23.963Z,1.02
2022-09-02T06:25:25.290Z,0.75
2022-09-02T06:30:26.653Z,0.90
2022-09-02T06:35:28.033Z,0.98
2022-09-02T06:40:29.527Z,1.02
2022-09-02T06:45:31.585Z,0.68
2022-09-02T06:50:33.136Z,1.10
2022-09-02T06:55:36.995Z,1.05
2022-09-02T07:00:39.807Z,1.40
2022-09-02T07:05:41.205Z,1.60
2022-09-02T07:10:42.566Z,0.80
2022-09-02T07:15:43.930Z,0.90
2022-09-02T07:20:47.337Z,1.00
2022-09-02T07:25:48.698Z,0.95
2022-09-02T07:30:58.965Z,1.02
2022-09-02T07:36:01.241Z,0.98
2022-09-02T07:41:03.765Z,0.70
2022-09-02T07:46:05.539Z,0.93
2022-09-02T07:51:08.104Z,0.95
2022-09-02T07:56:09.939Z,0.97
2022-09-02T08:01:12.793Z,0.90
2022-09-02T08:06:14.366Z,0.82
2022-09-02T08:11:15.763Z,1.20
2022-09-02T08:16:17.247Z,0.80
2022-09-02T08:21:18.894Z,1.00
2022-09-02T08:26:21.271Z,1.35
2022-09-02T08:31:23.003Z,0.80
2022-09-02T08:36:24.544Z,0.60
2022-09-02T08:41:33.734Z,0.85
2022-09-02T08:46:35.923Z,1.05
2022-09-02T08:51:48.138Z,0.65
2022-09-02T08:56:55.888Z,0.60
2022-09-02T09:02:17.905Z,0.50
2022-09-02T09:12:55.841Z,1.35
2022-09-02T09:18:08.193Z,0.90
2022-09-02T09:23:22.124Z,0.90
2022-09-02T09:28:23.633Z,0.60
2022-09-02T09:33:25.817Z,0.60
2022-09-02T09:38:36.008Z,0.45
2022-09-02T09:43:37.473Z,0.65
2022-09-02T09:48:49.569Z,0.30
2022-09-02T09:53:51.440Z,0.60
2022-09-02T09:58:53.425Z,0.30
2022-09-02T10:04:20.747Z,0.40
2022-09-02T10:09:31.006Z,0.70
2022-09-02T10:14:45.882Z,0.40
2022-09-02T10:19:47.258Z,0.60
2022-09-02T10:25:00.151Z,0.57
2022-09-02T10:30:13.537Z,0.40
2022-09-02T10:35:24.924Z,0.50
2022-09-02T10:40:37.378Z,0.93
2022-09-02T10:45:46.507Z,0.40
2022-09-02T10:51:15.521Z,0.40
2022-09-02T10:56:26.400Z,0.30
2022-09-02T11:01:49.220Z,0.35
2022-09-02T11:07:02.396Z,0.40
2022-09-02T11:12:04.452Z,0.63
2022-09-02T11:17:23.338Z,0.43
2022-09-02T11:22:39.973Z,0.43
2022-09-02T11:27:47.272Z,1.00
2022-09-02T11:33:21.677Z,0.20
2022-09-02T11:38:36.538Z,0.30
2022-09-02T11:43:47.492Z,0.40
2022-09-02T11:49:10.319Z,0.50
2022-09-02T11:54:16.299Z,0.60
2022-09-02T11:59:52.271Z,0.43
2022-09-02T12:05:29.853Z,0.20
2022-09-02T12:10:43.681Z,0.20
2022-09-02T12:15:45.432Z,0.40
2022-09-02T12:20:51.129Z,0.32
2022-09-02T12:26:01.643Z,0.30
2022-09-02T12:31:07.525Z,0.45
2022-09-02T12:36:29.556Z,0.40
2022-09-02T12:41:33.983Z,0.30
2022-09-02T12:46:44.403Z,0.40
2022-09-02T12:52:04.948Z,0.40
2022-09-02T12:57:07.963Z,0.43
2022-09-02T13:02:51.931Z,0.35
2022-09-02T13:08:32.770Z,0.50
2022-09-02T13:14:05.184Z,0.38
2022-09-02T13:19:10.883Z,0.22
2022-09-02T13:24:36.124Z,0.30
2022-09-02T13:30:06.419Z,0.20
2022-09-02T13:35:20.268Z,0.77
2022-09-02T13:40:33.671Z,0.50
2022-09-02T13:45:35.777Z,0.40
2022-09-02T13:50:42.052Z,0.30
2022-09-02T13:55:49.800Z,0.30
2022-09-02T14:00:51.254Z,0.40
2022-09-02T14:05:56.722Z,0.47
2022-09-02T14:10:58.297Z,0.40
2022-09-02T14:16:23.931Z,0.40
2022-09-02T14:21:25.270Z,0.52
2022-09-02T14:26:33.218Z,0.50
2022-09-02T14:31:35.256Z,0.60
2022-09-02T14:36:38.816Z,0.40
2022-09-02T14:41:58.469Z,0.45
2022-09-02T14:47:13.010Z,0.30
2022-09-02T14:52:27.806Z,0.22
2022-09-02T14:57:35.405Z,0.50
2022-09-02T15:02:40.509Z,0.20
2022-09-02T15:07:42.440Z,0.30
2022-09-02T15:12:49.733Z,0.40
2022-09-02T15:17:51.121Z,0.93
2022-09-02T15:22:53.572Z,0.55
2022-09-02T15:27:54.892Z,0.38
2022-09-02T15:32:56.176Z,0.40
2022-09-02T15:37:57.481Z,0.90
2022-09-02T15:42:59.976Z,0.82
2022-09-02T15:48:01.308Z,0.30
2022-09-02T15:53:02.713Z,0.40
2022-09-02T15:58:04.137Z,0.70
2022-09-02T16:03:05.528Z,0.57
2022-09-02T16:08:09.062Z,0.50
2022-09-02T16:13:10.436Z,0.25
2022-09-02T16:18:17.615Z,0.50
2022-09-02T16:23:18.994Z,0.55
2022-09-02T16:28:20.460Z,0.40
2022-09-02T16:33:21.798Z,0.38
2022-09-02T16:38:23.195Z,0.30
2022-09-02T16:43:26.419Z,0.50
2022-09-02T16:48:32.189Z,0.40
2022-09-02T16:53:33.638Z,0.50
2022-09-02T16:58:37.072Z,0.30
2022-09-02T17:03:39.784Z,0.88
2022-09-02T17:08:44.422Z,0.60
2022-09-02T17:13:57.194Z,0.50
2022-09-02T17:19:02.334Z,0.47
2022-09-02T17:24:09.830Z,0.90
2022-09-02T17:29:37.834Z,0.95
2022-09-02T17:34:37.598Z,0.40
2022-09-02T17:39:39.011Z,0.50
2022-09-02T17:44:40.495Z,0.40
2022-09-02T17:49:44.181Z,0.80
2022-09-02T17:54:49.005Z,0.52
2022-09-02T18:00:10.128Z,0.80
2022-09-02T18:05:49.960Z,0.60
2022-09-02T18:10:58.446Z,0.60
2022-09-02T18:16:28.366Z,0.88
2022-09-02T18:21:47.856Z,0.82
2022-09-02T18:27:02.467Z,0.70
2022-09-02T18:32:32.095Z,0.60
2022-09-02T18:38:06.542Z,0.50
2022-09-02T18:43:23.808Z,0.63
2022-09-02T18:48:31.269Z,0.80
2022-09-02T18:53:39.796Z,0.70
2022-09-02T18:58:50.754Z,1.10
2022-09-02T19:03:52.516Z,0.95
2022-09-02T19:09:01.036Z,1.10
2022-09-02T19:14:09.190Z,0.73
2022-09-02T19:19:10.554Z,0.80
2022-09-02T19:24:14.949Z,1.10
2022-09-02T19:29:17.482Z,0.85
2022-09-02T19:34:19.844Z,0.90
2022-09-02T19:39:21.490Z,0.82
2022-09-02T19:44:22.819Z,0.88
2022-09-02T19:49:24.715Z,0.75
2022-09-02T19:54:26.437Z,0.90
2022-09-02T19:59:27.870Z,1.10
2022-09-02T20:04:29.927Z,0.98
2022-09-02T20:09:31.608Z,1.02
2022-09-02T20:14:36.373Z,1.02
2022-09-02T20:19:37.739Z,1.55
2022-09-02T20:24:45.106Z,0.85
2022-09-02T20:30:05.003Z,0.60
2022-09-02T20:35:24.446Z,0.63
2022-09-02T20:40:58.145Z,0.90
2022-09-02T20:46:06.103Z,0.70
2022-09-02T20:51:12.570Z,1.05
2022-09-02T20:56:28.790Z,0.93
2022-09-02T21:01:34.851Z,1.17
2022-09-02T21:06:41.769Z,2.10
2022-09-02T21:11:52.044Z,1.75
2022-09-02T21:17:05.405Z,1.90
2022-09-02T21:22:19.272Z,2.60
2022-09-02T21:27:25.406Z,2.13
2022-09-02T21:32:51.278Z,2.30
2022-09-02T21:38:06.906Z,2.05
2022-09-02T21:43:17.620Z,1.83
2022-09-02T21:48:25.064Z,1.17
2022-09-02T21:54:04.090Z,0.95
2022-09-02T21:59:26.947Z,1.25
2022-09-02T22:04:31.604Z,0.82
2022-09-02T22:09:33.095Z,1.00
2022-09-02T22:15:11.966Z,0.98
2022-09-02T22:20:18.469Z,0.55
2022-09-02T22:25:21.728Z,0.77
2022-09-02T22:30:23.190Z,0.50
2022-09-02T22:35:41.172Z,0.80
2022-09-02T22:40:50.269Z,0.60
2022-09-02T22:46:17.828Z,0.70
2022-09-02T22:51:48.399Z,0.73
2022-09-02T22:56:58.840Z,0.40
2022-09-02T23:02:13.837Z,0.60
2022-09-02T23:07:15.165Z,0.57
2022-09-02T23:12:28.538Z,0.30
2022-09-02T23:17:38.965Z,0.35
2022-09-02T23:23:05.782Z,0.57
2022-09-02T23:28:16.487Z,1.23
2022-09-02T23:34:01.056Z,0.47
2022-09-02T23:39:18.969Z,0.57
2022-09-02T23:44:20.853Z,0.40
2022-09-02T23:49:38.796Z,0.68
2022-09-02T23:55:10.829Z,0.60
